createdAt,value
2023-03-19T00:00:10.301Z,-140.87
2023-03-19T00:04:00.289Z,-140.87
2023-03-19T00:07:28.524Z,-140.87
2023-03-19T00:10:56.285Z,-140.87
2023-03-19T00:14:24.545Z,-140.87
2023-03-19T00:17:52.552Z,-140.87
2023-03-19T00:21:24.263Z,-140.87
2023-03-19T00:24:54.040Z,-140.87
2023-03-19T00:28:21.637Z,-140.87
2023-03-19T00:31:50.599Z,-140.87
2023-03-19T00:35:19.280Z,-140.87
2023-03-19T00:38:50.291Z,-140.87
2023-03-19T00:42:18.572Z,-140.87
2023-03-19T00:45:47.770Z,-140.87
2023-03-19T00:49:16.010Z,-140.87
2023-03-19T00:52:44.373Z,-140.87
2023-03-19T00:56:14.763Z,-140.87
2023-03-19T00:59:42.710Z,-140.87
2023-03-19T01:03:11.069Z,-140.87
2023-03-19T01:06:38.939Z,-140.87
2023-03-19T01:10:07.507Z,-140.87
2023-03-19T01:13:37.177Z,-140.87
2023-03-19T01:17:05.743Z,-140.87
2023-03-19T01:20:33.888Z,-140.87
2023-03-19T01:24:02.235Z,-140.87
2023-03-19T01:27:30.870Z,-140.87
2023-03-19T01:31:02.027Z,-140.87
2023-03-19T01:34:32.781Z,-140.87
2023-03-19T01:38:19.811Z,-140.87
2023-03-19T01:41:49.343Z,-140.87
2023-03-19T01:45:37.277Z,-140.87
2023-03-19T01:49:29.002Z,-140.87
2023-03-19T01:53:16.939Z,-140.87
2023-03-19T01:56:53.885Z,-140.87
2023-03-19T02:00:44.972Z,-140.87
2023-03-19T02:04:14.800Z,-140.87
2023-03-19T02:07:46.621Z,-140.87
2023-03-19T02:11:15.957Z,-140.87
2023-03-19T02:14:44.129Z,-140.87
2023-03-19T02:18:13.489Z,-140.87
2023-03-19T02:21:45.589Z,-140.87
2023-03-19T02:25:18.394Z,-140.87
2023-03-19T02:28:49.878Z,-140.87
2023-03-19T02:32:23.274Z,-140.87
2023-03-19T02:35:52.882Z,-140.87
2023-03-19T02:39:23.506Z,-140.87
2023-03-19T02:42:54.428Z,-140.87
2023-03-19T02:46:28.257Z,-140.87
2023-03-19T02:49:56.121Z,-140.87
2023-03-19T02:53:24.412Z,-140.87
2023-03-19T02:56:53.419Z,-140.87
2023-03-19T03:00:23.011Z,-140.87
2023-03-19T03:03:50.943Z,-140.87
2023-03-19T03:07:19.321Z,-140.87
2023-03-19T03:10:46.850Z,-140.87
2023-03-19T03:14:15.032Z,-140.87
2023-03-19T03:17:45.037Z,-140.87
2023-03-19T03:21:13.976Z,-140.87
2023-03-19T03:24:42.198Z,-140.87
2023-03-19T03:28:10.714Z,-140.87
2023-03-19T03:37:32.863Z,-140.87
2023-03-19T03:41:00.664Z,-140.87
2023-03-19T03:44:28.978Z,-140.87
2023-03-19T03:47:57.037Z,-140.87
2023-03-19T03:51:26.061Z,-140.87
2023-03-19T03:54:55.261Z,-140.87
2023-03-19T03:58:24.153Z,-140.87
2023-03-19T04:01:52.328Z,-140.87
2023-03-19T04:05:20.675Z,-140.87
2023-03-19T04:08:48.619Z,-140.87
2023-03-19T04:12:18.073Z,-140.87
2023-03-19T04:15:46.740Z,-140.87
2023-03-19T04:19:15.678Z,-140.87
2023-03-19T04:22:43.632Z,-140.87
2023-03-19T04:26:12.354Z,-140.87
2023-03-19T04:29:41.571Z,-140.87
2023-03-19T04:33:11.140Z,-140.87
2023-03-19T04:36:39.837Z,-140.87
2023-03-19T04:40:08.582Z,-140.87
2023-03-19T04:43:38.387Z,-140.87
2023-03-19T04:47:08.133Z,-140.87
2023-03-19T04:50:51.905Z,-140.87
2023-03-19T04:54:20.849Z,-140.87
2023-03-19T04:57:48.891Z,-140.87
2023-03-19T05:01:19.675Z,-140.87
2023-03-19T05:05:09.627Z,-140.87
2023-03-19T05:08:37.553Z,-140.87
2023-03-19T05:12:06.200Z,-140.87
2023-03-19T05:15:43.207Z,-140.87
2023-03-19T05:19:14.543Z,-140.87
2023-03-19T05:22:42.605Z,-140.87
2023-03-19T05:26:11.691Z,-140.87
2023-03-19T05:30:17.818Z,-140.87
2023-03-19T05:33:47.297Z,-140.87
2023-03-19T05:37:15.778Z,-140.87
2023-03-19T05:40:47.450Z,-140.87
2023-03-19T05:44:38.064Z,-140.87
2023-03-19T05:48:38.372Z,-140.87
2023-03-19T05:52:09.730Z,-140.87
2023-03-19T05:55:38.297Z,-140.87
2023-03-19T05:59:09.152Z,-140.87
2023-03-19T06:02:41.919Z,-140.87
2023-03-19T06:06:34.638Z,-140.87
2023-03-19T06:10:02.899Z,-140.87
2023-03-19T06:13:31.302Z,-140.87
2023-03-19T06:17:09.444Z,-140.87
2023-03-19T06:20:37.837Z,-140.87
2023-03-19T06:24:07.689Z,-140.87
2023-03-19T06:27:37.023Z,-140.87
2023-03-19T06:31:19.119Z,-140.87
2023-03-19T06:34:59.421Z,-140.87
2023-03-19T06:38:28.588Z,-140.87
2023-03-19T06:41:57.760Z,-140.87
2023-03-19T06:45:28.250Z,-140.87
2023-03-19T06:48:56.753Z,-140.87
2023-03-19T06:52:24.734Z,-140.87
2023-03-19T06:55:54.498Z,-140.87
2023-03-19T06:59:22.498Z,-140.87
2023-03-19T07:02:50.738Z,-140.87
2023-03-19T07:06:18.379Z,-140.87
2023-03-19T07:09:46.903Z,-140.87
2023-03-19T07:13:16.270Z,-140.87
2023-03-19T07:16:44.589Z,-140.87
2023-03-19T07:20:13.054Z,-140.87
2023-03-19T07:23:41.631Z,-140.87
2023-03-19T07:27:39.384Z,-140.87
2023-03-19T07:31:09.067Z,-140.87
2023-03-19T07:34:37.423Z,-140.87
2023-03-19T07:38:05.594Z,-140.87
2023-03-19T07:41:33.832Z,-140.87
2023-03-19T07:45:03.932Z,-140.87
2023-03-19T07:48:32.216Z,-140.87
2023-03-19T07:52:00.201Z,-140.87
2023-03-19T07:55:28.376Z,-140.87
2023-03-19T07:58:56.123Z,-140.87
2023-03-19T08:02:26.429Z,-140.87
2023-03-19T08:05:54.380Z,-140.87
2023-03-19T08:09:22.482Z,-140.87
2023-03-19T08:12:49.997Z,-140.87
2023-03-19T08:16:18.708Z,-140.87
2023-03-19T08:19:48.327Z,-140.87
2023-03-19T08:23:16.768Z,-140.87
2023-03-19T08:26:44.861Z,-140.87
2023-03-19T08:30:13.723Z,-140.87
2023-03-19T08:33:41.997Z,-140.87
2023-03-19T08:37:12.358Z,-140.87
2023-03-19T08:40:40.592Z,-140.87
2023-03-19T08:44:08.618Z,-140.87
2023-03-19T08:47:36.742Z,-140.87
2023-03-19T08:51:05.592Z,-140.87
2023-03-19T08:54:35.117Z,-140.87
2023-03-19T08:58:03.397Z,-140.87
2023-03-19T09:01:31.303Z,-140.87
2023-03-19T09:04:59.458Z,-140.87
2023-03-19T09:08:28.247Z,-140.87
2023-03-19T09:11:58.404Z,-140.87
2023-03-19T09:15:26.811Z,-140.87
2023-03-19T09:18:54.534Z,-140.87
2023-03-19T09:22:22.602Z,-140.87
2023-03-19T09:25:51.337Z,-140.87
2023-03-19T09:29:21.179Z,-140.87
2023-03-19T09:32:49.498Z,-140.87
2023-03-19T09:36:17.896Z,-140.87
2023-03-19T09:39:46.498Z,-140.87
2023-03-19T09:43:36.350Z,-140.87
2023-03-19T09:47:14.297Z,-140.87
2023-03-19T09:50:45.420Z,-140.87
2023-03-19T09:54:24.446Z,-140.87
2023-03-19T09:57:54.787Z,-140.87
2023-03-19T10:01:27.454Z,-140.87
2023-03-19T10:05:09.504Z,-140.87
2023-03-19T10:08:55.020Z,-140.87
2023-03-19T10:12:42.169Z,-140.87
2023-03-19T10:16:20.601Z,-140.87
2023-03-19T10:19:52.398Z,-140.87
2023-03-19T10:23:35.846Z,-140.87
2023-03-19T10:27:10.957Z,-140.87
2023-03-19T10:30:39.538Z,-140.87
2023-03-19T10:34:18.873Z,-140.87
2023-03-19T10:37:47.323Z,-140.87
2023-03-19T10:41:24.815Z,-140.87
2023-03-19T10:44:57.926Z,-140.87
2023-03-19T10:48:29.326Z,-140.87
2023-03-19T10:51:59.610Z,-140.87
2023-03-19T10:55:31.044Z,-140.87
2023-03-19T10:59:04.661Z,-140.87
2023-03-19T11:02:34.250Z,-140.87
2023-03-19T11:06:26.538Z,-140.87
2023-03-19T11:09:58.475Z,-140.87
2023-03-19T11:12:34.042Z,38.06
2023-03-19T11:15:07.597Z,40.55
2023-03-19T11:17:40.768Z,38.85
2023-03-19T11:20:24.788Z,39.36
2023-03-19T11:22:55.897Z,39.06
2023-03-19T11:25:29.185Z,39.99
2023-03-19T11:28:04.056Z,42.52
2023-03-19T11:30:44.757Z,40.25
2023-03-19T11:33:45.588Z,40.02
2023-03-19T11:36:22.693Z,41.51
2023-03-19T11:39:07.988Z,42.87
2023-03-19T11:41:53.065Z,41.90
2023-03-19T11:44:29.778Z,43.20
2023-03-19T11:47:17.812Z,43.05
2023-03-19T11:50:06.575Z,41.48
2023-03-19T11:52:42.698Z,41.76
2023-03-19T11:55:22.539Z,40.42
2023-03-19T11:58:07.702Z,44.03
2023-03-19T12:00:44.584Z,43.25
2023-03-19T12:03:58.809Z,43.27
2023-03-19T12:06:40.390Z,44.74
2023-03-19T12:09:21.210Z,46.20
2023-03-19T12:11:55.512Z,48.84
2023-03-19T12:14:42.656Z,45.06
2023-03-19T12:17:31.250Z,45.30
2023-03-19T12:20:19.326Z,44.69
2023-03-19T12:23:01.211Z,43.94
2023-03-19T12:25:50.650Z,46.63
2023-03-19T12:28:25.387Z,44.49
2023-03-19T12:31:34.624Z,44.77
2023-03-19T12:34:27.211Z,45.14
2023-03-19T12:37:05.898Z,46.64
2023-03-19T12:39:40.097Z,46.27
2023-03-19T12:42:17.617Z,44.79
2023-03-19T12:44:52.561Z,42.22
2023-03-19T12:47:27.958Z,43.33
2023-03-19T12:50:02.898Z,43.50
2023-03-19T12:52:37.715Z,44.19
2023-03-19T12:55:16.361Z,44.77
2023-03-19T12:57:52.842Z,44.96
2023-03-19T13:00:29.865Z,42.43
2023-03-19T13:03:06.207Z,41.86
2023-03-19T13:05:43.656Z,45.38
2023-03-19T13:08:19.081Z,44.39
2023-03-19T13:10:48.666Z,44.02
2023-03-19T13:13:37.699Z,43.75
2023-03-19T13:16:20.125Z,42.98
2023-03-19T13:18:57.508Z,41.60
2023-03-19T13:21:32.095Z,43.44
2023-03-19T13:24:09.834Z,40.68
2023-03-19T13:26:40.760Z,42.05
2023-03-19T13:29:20.312Z,42.15
2023-03-19T13:31:50.827Z,40.71
2023-03-19T13:34:25.611Z,41.18
2023-03-19T13:37:07.127Z,42.07
2023-03-19T13:39:38.157Z,42.14
2023-03-19T13:42:46.376Z,39.11
2023-03-19T13:45:37.461Z,39.21
2023-03-19T13:48:37.621Z,41.81
2023-03-19T13:51:25.377Z,39.50
2023-03-19T13:53:56.877Z,38.13
2023-03-19T13:56:30.597Z,38.76
2023-03-19T13:59:26.929Z,41.33
2023-03-19T14:01:58.373Z,35.77
2023-03-19T14:04:30.848Z,35.40
2023-03-19T14:07:12.007Z,35.82
2023-03-19T14:09:43.730Z,34.51
2023-03-19T14:12:24.641Z,35.45
2023-03-19T14:14:57.337Z,35.13
2023-03-19T14:17:32.807Z,32.48
2023-03-19T14:20:26.693Z,33.08
2023-03-19T14:23:23.490Z,33.97
2023-03-19T14:26:07.545Z,33.04
2023-03-19T14:28:43.757Z,32.48
2023-03-19T14:31:23.075Z,31.31
2023-03-19T14:33:59.640Z,31.94
2023-03-19T14:36:31.823Z,32.25
2023-03-19T14:39:05.224Z,31.37
2023-03-19T14:41:40.669Z,31.18
2023-03-19T14:44:53.167Z,31.92
2023-03-19T14:47:49.352Z,31.93
2023-03-19T14:50:43.177Z,32.19
2023-03-19T14:53:15.191Z,32.21
2023-03-19T14:55:50.473Z,31.59
2023-03-19T14:58:22.132Z,31.56
2023-03-19T15:00:54.702Z,32.25
2023-03-19T15:03:31.635Z,31.40
2023-03-19T15:06:05.325Z,32.15
2023-03-19T15:08:38.029Z,32.14
2023-03-19T15:11:31.628Z,32.40
2023-03-19T15:14:17.797Z,32.66
2023-03-19T15:16:54.249Z,31.50
2023-03-19T15:19:28.388Z,31.33
2023-03-19T15:22:13.452Z,30.97
2023-03-19T15:24:43.496Z,31.40
2023-03-19T15:27:21.208Z,30.25
2023-03-19T15:29:51.941Z,31.13
2023-03-19T15:32:52.293Z,31.90
2023-03-19T15:35:30.748Z,31.24
2023-03-19T15:38:03.653Z,30.84
2023-03-19T15:40:34.733Z,30.87
2023-03-19T15:43:04.813Z,31.29
2023-03-19T15:45:35.816Z,31.71
2023-03-19T15:48:08.493Z,31.71
2023-03-19T15:50:41.319Z,30.97
2023-03-19T15:53:16.629Z,31.47
2023-03-19T15:55:49.297Z,30.72
2023-03-19T15:58:22.409Z,30.74
2023-03-19T16:00:55.037Z,31.16
2023-03-19T16:03:30.028Z,31.02
2023-03-19T16:06:04.767Z,31.23
2023-03-19T16:08:36.291Z,30.06
2023-03-19T16:11:16.636Z,29.60
2023-03-19T16:13:57.118Z,28.57
2023-03-19T16:16:30.170Z,29.68
2023-03-19T16:19:00.541Z,29.63
2023-03-19T16:21:38.351Z,30.11
2023-03-19T16:24:21.202Z,29.34
2023-03-19T16:26:51.675Z,29.38
2023-03-19T16:29:24.437Z,29.17
2023-03-19T16:31:58.091Z,29.66
2023-03-19T16:34:42.569Z,30.02
2023-03-19T16:37:41.603Z,29.96
2023-03-19T16:40:50.391Z,29.56
2023-03-19T16:43:23.930Z,29.32
2023-03-19T16:46:05.587Z,29.16
2023-03-19T16:48:35.386Z,29.38
2023-03-19T16:51:05.238Z,29.44
2023-03-19T16:53:35.956Z,29.67
2023-03-19T16:56:05.825Z,29.37
2023-03-19T16:58:42.593Z,29.33
2023-03-19T17:01:18.212Z,29.46
2023-03-19T17:03:49.621Z,29.35
2023-03-19T17:06:19.875Z,29.13
2023-03-19T17:08:49.949Z,29.22
2023-03-19T17:11:25.603Z,29.08
2023-03-19T17:13:58.843Z,28.11
2023-03-19T17:16:29.348Z,28.83
2023-03-19T17:19:00.107Z,28.86
2023-03-19T17:21:33.426Z,28.66
2023-03-19T17:24:18.999Z,28.76
2023-03-19T17:26:48.513Z,28.74
2023-03-19T17:29:20.900Z,29.23
2023-03-19T17:31:50.769Z,29.83
2023-03-19T17:34:22.425Z,28.90
2023-03-19T17:36:54.604Z,28.72
2023-03-19T17:39:25.064Z,28.36
2023-03-19T17:41:55.029Z,28.01
2023-03-19T17:44:27.953Z,28.76
2023-03-19T17:46:58.067Z,28.65
2023-03-19T17:49:30.143Z,29.08
2023-03-19T17:52:00.783Z,28.73
2023-03-19T17:54:30.837Z,28.71
2023-03-19T17:57:00.252Z,28.82
2023-03-19T17:59:31.500Z,28.99
2023-03-19T18:02:01.262Z,28.80
2023-03-19T18:04:30.969Z,28.83
2023-03-19T18:07:00.461Z,28.48
2023-03-19T18:09:30.564Z,28.35
2023-03-19T18:11:59.912Z,28.31
2023-03-19T18:14:30.942Z,28.19
2023-03-19T18:17:00.759Z,28.28
2023-03-19T18:19:32.166Z,28.37
2023-03-19T18:22:01.755Z,28.49
2023-03-19T18:24:31.758Z,27.86
2023-03-19T18:27:01.095Z,27.65
2023-03-19T18:29:32.319Z,27.13
2023-03-19T18:32:07.575Z,27.68
2023-03-19T18:34:37.349Z,27.77
2023-03-19T18:37:06.691Z,27.77
2023-03-19T18:39:39.253Z,27.66
2023-03-19T18:42:08.719Z,27.58
2023-03-19T18:44:39.893Z,27.82
2023-03-19T18:47:14.521Z,27.86
2023-03-19T18:49:45.001Z,27.42
2023-03-19T18:52:19.227Z,27.33
2023-03-19T18:54:49.789Z,27.12
2023-03-19T18:57:19.441Z,26.98
2023-03-19T18:59:50.812Z,26.91
2023-03-19T19:02:30.545Z,26.82
2023-03-19T19:05:01.787Z,26.54
2023-03-19T19:07:31.974Z,26.31
2023-03-19T19:10:05.400Z,25.83
2023-03-19T19:12:35.552Z,26.24
2023-03-19T19:15:09.269Z,26.12
2023-03-19T19:17:39.254Z,26.06
2023-03-19T19:20:12.091Z,25.26
2023-03-19T19:22:41.521Z,25.83
2023-03-19T19:25:16.715Z,25.67
2023-03-19T19:27:48.466Z,25.60
2023-03-19T19:30:22.618Z,25.56
2023-03-19T19:32:52.421Z,25.49
2023-03-19T19:35:23.673Z,25.54
2023-03-19T19:37:53.719Z,25.54
2023-03-19T19:40:28.531Z,25.51
2023-03-19T19:43:00.809Z,25.39
2023-03-19T19:45:36.624Z,25.43
2023-03-19T19:48:08.994Z,25.15
2023-03-19T19:50:38.759Z,24.86
2023-03-19T19:53:08.160Z,24.83
2023-03-19T19:55:38.169Z,25.08
2023-03-19T19:58:11.376Z,24.60
2023-03-19T20:00:47.715Z,24.95
2023-03-19T20:03:25.144Z,24.85
2023-03-19T20:05:56.257Z,25.19
2023-03-19T20:08:27.076Z,25.14
2023-03-19T20:10:57.867Z,24.95
2023-03-19T20:13:30.229Z,24.89
2023-03-19T20:16:03.869Z,25.03
2023-03-19T20:18:36.113Z,24.68
2023-03-19T20:21:07.218Z,24.45
2023-03-19T20:23:36.709Z,24.38
2023-03-19T20:26:07.280Z,24.26
2023-03-19T20:28:37.193Z,24.58
2023-03-19T20:31:08.378Z,24.67
2023-03-19T20:33:38.697Z,24.58
2023-03-19T20:36:10.494Z,24.38
2023-03-19T20:38:39.939Z,24.17
2023-03-19T20:41:20.247Z,24.23
2023-03-19T20:43:50.585Z,24.15
2023-03-19T20:46:23.423Z,23.40
2023-03-19T20:48:54.122Z,23.21
2023-03-19T20:51:26.408Z,23.53
2023-03-19T20:53:55.705Z,24.10
2023-03-19T20:56:25.721Z,23.65
2023-03-19T20:58:55.293Z,23.78
2023-03-19T21:01:26.710Z,23.99
2023-03-19T21:03:56.319Z,23.85
2023-03-19T21:06:26.761Z,23.58
2023-03-19T21:08:59.746Z,23.56
2023-03-19T21:11:38.337Z,23.54
2023-03-19T21:16:39.266Z,22.66
2023-03-19T21:19:08.621Z,23.35
2023-03-19T21:21:39.646Z,22.91
2023-03-19T21:24:13.921Z,22.96
2023-03-19T21:26:45.885Z,23.22
2023-03-19T21:29:21.560Z,22.86
2023-03-19T21:31:54.335Z,23.52
2023-03-19T21:34:23.640Z,23.00
2023-03-19T21:36:53.317Z,23.36
2023-03-19T21:39:22.858Z,22.87
2023-03-19T21:41:52.762Z,23.38
2023-03-19T21:44:24.577Z,23.32
2023-03-19T21:46:55.816Z,23.39
2023-03-19T21:49:25.060Z,23.72
2023-03-19T21:51:57.118Z,23.51
2023-03-19T21:54:26.481Z,23.41
2023-03-19T21:56:56.108Z,23.53
2023-03-19T21:59:28.906Z,23.28
2023-03-19T22:01:59.953Z,23.23
2023-03-19T22:04:29.387Z,23.35
2023-03-19T22:06:58.985Z,23.42
2023-03-19T22:09:28.329Z,23.70
2023-03-19T22:11:57.857Z,23.51
2023-03-19T22:14:28.737Z,23.58
2023-03-19T22:17:01.120Z,23.78
2023-03-19T22:19:30.436Z,23.41
2023-03-19T22:21:59.889Z,23.05
2023-03-19T22:24:29.113Z,23.25
2023-03-19T22:26:59.792Z,23.06
2023-03-19T22:29:29.380Z,22.82
2023-03-19T22:32:00.557Z,22.78
2023-03-19T22:34:30.040Z,22.95
2023-03-19T22:37:00.424Z,22.93
2023-03-19T22:39:29.631Z,22.83
2023-03-19T22:41:59.197Z,22.48
2023-03-19T22:44:30.797Z,22.46
2023-03-19T22:47:03.100Z,22.57
2023-03-19T22:49:33.548Z,22.51
2023-03-19T22:52:03.137Z,22.60
2023-03-19T22:54:32.634Z,22.59
2023-03-19T22:57:02.205Z,22.62
2023-03-19T22:59:31.663Z,22.62
2023-03-19T23:02:02.883Z,22.78
2023-03-19T23:04:34.010Z,22.64
2023-03-19T23:07:03.753Z,22.51
2023-03-19T23:09:36.005Z,22.60
2023-03-19T23:14:36.860Z,22.31
2023-03-19T23:17:17.686Z,22.14
2023-03-19T23:19:47.102Z,22.15
2023-03-19T23:22:18.297Z,22.13
2023-03-19T23:24:47.595Z,21.94
2023-03-19T23:27:24.255Z,21.90
2023-03-19T23:29:53.885Z,22.13
2023-03-19T23:32:24.833Z,21.98
2023-03-19T23:35:00.556Z,22.03
2023-03-19T23:37:31.150Z,21.51
2023-03-19T23:40:00.811Z,21.68
2023-03-19T23:42:32.963Z,21.59
2023-03-19T23:45:04.579Z,20.78
2023-03-19T23:47:36.930Z,21.00
2023-03-19T23:50:11.384Z,21.13
2023-03-19T23:52:41.108Z,21.60
2023-03-19T23:55:11.186Z,21.84
2023-03-19T23:57:41.835Z,21.36
